createdAt,value
2022-11-29T00:04:45.043Z,79.97
2022-11-29T00:09:46.684Z,80.26
2022-11-29T00:14:48.143Z,80.37
2022-11-29T00:19:49.598Z,81.56
2022-11-29T00:24:51.912Z,81.29
2022-11-29T00:29:53.344Z,81.58
2022-11-29T00:34:58.253Z,81.01
2022-11-29T00:40:00.885Z,80.76
2022-11-29T00:45:02.382Z,81.23
2022-11-29T00:50:04.676Z,80.56
2022-11-29T00:55:06.499Z,81.28
2022-11-29T01:00:08.512Z,81.46
2022-11-29T01:05:09.977Z,80.13
2022-11-29T01:10:11.439Z,80.95
2022-11-29T01:15:13.010Z,81.94
2022-11-29T01:20:15.480Z,80.55
2022-11-29T01:25:17.299Z,80.40
2022-11-29T01:30:19.219Z,80.51
2022-11-29T01:35:20.662Z,80.88
2022-11-29T01:40:22.154Z,80.72
2022-11-29T01:45:26.403Z,80.27
2022-11-29T01:50:27.880Z,80.06
2022-11-29T01:55:29.390Z,80.26
2022-11-29T02:00:30.885Z,80.50
2022-11-29T02:05:33.126Z,80.31
2022-11-29T02:10:46.583Z,80.24
2022-11-29T02:16:03.179Z,79.63
2022-11-29T02:21:07.378Z,79.15
2022-11-29T02:26:42.471Z,79.27
2022-11-29T02:32:00.827Z,80.06
2022-11-29T02:37:47.807Z,81.07
2022-11-29T02:43:18.229Z,81.19
2022-11-29T02:48:19.522Z,81.38
2022-11-29T02:53:27.835Z,81.72
2022-11-29T02:58:47.348Z,81.70
2022-11-29T03:04:27.117Z,81.31
2022-11-29T03:09:45.640Z,80.93
2022-11-29T03:14:57.195Z,80.57
2022-11-29T03:20:06.208Z,80.59
2022-11-29T03:25:22.174Z,79.90
2022-11-29T03:30:23.780Z,80.35
2022-11-29T03:35:46.279Z,80.42
2022-11-29T03:40:50.639Z,80.26
2022-11-29T03:46:02.099Z,80.44
2022-11-29T03:51:11.339Z,80.61
2022-11-29T03:56:27.285Z,80.00
2022-11-29T04:01:54.001Z,80.67
2022-11-29T04:07:26.973Z,80.49
2022-11-29T04:12:38.479Z,80.83
2022-11-29T04:17:58.301Z,80.75
2022-11-29T04:23:17.947Z,80.28
2022-11-29T04:28:43.503Z,80.91
2022-11-29T04:34:03.579Z,81.00
2022-11-29T04:39:04.880Z,80.31
2022-11-29T04:44:27.317Z,81.30
2022-11-29T04:49:44.802Z,81.10
2022-11-29T04:54:59.889Z,81.29
2022-11-29T05:00:15.254Z,82.16
2022-11-29T05:05:31.976Z,82.08
2022-11-29T05:10:59.610Z,81.98
2022-11-29T05:16:37.133Z,81.22
2022-11-29T05:22:15.956Z,80.69
2022-11-29T05:27:36.654Z,81.14
2022-11-29T05:32:55.712Z,80.83
2022-11-29T05:38:02.474Z,81.38
2022-11-29T05:43:19.479Z,81.08
2022-11-29T05:48:29.597Z,81.53
2022-11-29T05:53:42.932Z,81.72
2022-11-29T05:59:05.409Z,81.66
2022-11-29T06:04:22.039Z,81.81
2022-11-29T06:09:32.230Z,81.98
2022-11-29T06:14:52.462Z,82.17
2022-11-29T06:20:08.567Z,81.64
2022-11-29T06:25:21.369Z,81.87
2022-11-29T06:30:55.238Z,81.64
2022-11-29T06:36:19.910Z,81.72
2022-11-29T06:41:24.339Z,82.30
2022-11-29T06:46:56.000Z,81.34
2022-11-29T06:52:09.977Z,81.35
2022-11-29T06:58:10.080Z,81.92
2022-11-29T07:03:47.838Z,81.82
2022-11-29T07:08:53.840Z,81.06
2022-11-29T07:13:55.825Z,81.45
2022-11-29T07:19:10.166Z,81.73
2022-11-29T07:24:20.315Z,82.00
2022-11-29T07:29:29.544Z,82.57
2022-11-29T07:34:47.511Z,82.01
2022-11-29T07:40:15.978Z,82.07
2022-11-29T07:45:30.730Z,81.98
2022-11-29T07:50:32.600Z,81.73
2022-11-29T07:55:34.211Z,82.08
2022-11-29T08:00:35.727Z,82.05
2022-11-29T08:05:38.252Z,81.34
2022-11-29T08:10:39.680Z,82.20
2022-11-29T08:15:45.720Z,82.03
2022-11-29T08:20:47.129Z,81.61
2022-11-29T08:25:48.588Z,81.06
2022-11-29T08:30:50.042Z,81.25
2022-11-29T08:35:51.444Z,81.43
2022-11-29T08:40:52.907Z,81.43
2022-11-29T08:45:54.367Z,81.62
2022-11-29T08:50:56.621Z,82.41
2022-11-29T08:55:59.575Z,82.12
2022-11-29T09:01:01.074Z,80.71
2022-11-29T09:06:14.031Z,80.67
2022-11-29T09:11:18.501Z,80.56
2022-11-29T09:16:22.475Z,80.15
2022-11-29T09:21:25.944Z,79.77
2022-11-29T09:26:30.263Z,79.64
2022-11-29T09:31:33.155Z,79.49
2022-11-29T09:36:34.637Z,78.86
2022-11-29T09:42:07.535Z,78.50
2022-11-29T09:47:18.552Z,78.06
2022-11-29T09:52:32.113Z,76.80
2022-11-29T09:57:33.675Z,76.94
2022-11-29T10:02:43.659Z,76.36
2022-11-29T10:08:03.380Z,76.77
2022-11-29T10:13:18.824Z,76.93
2022-11-29T10:18:35.020Z,76.19
2022-11-29T10:23:41.754Z,74.75
2022-11-29T10:28:45.021Z,74.51
2022-11-29T10:33:47.374Z,75.24
2022-11-29T10:38:50.284Z,74.48
2022-11-29T10:43:52.021Z,74.07
2022-11-29T10:48:54.026Z,74.08
2022-11-29T10:53:56.555Z,74.29
2022-11-29T10:59:03.902Z,73.66
2022-11-29T11:04:06.850Z,73.67
2022-11-29T11:09:24.936Z,73.28
2022-11-29T11:14:28.252Z,71.93
2022-11-29T11:19:34.540Z,71.88
2022-11-29T11:24:41.828Z,71.55
2022-11-29T11:29:44.739Z,72.60
2022-11-29T11:35:00.087Z,72.14
2022-11-29T11:40:26.748Z,72.48
2022-11-29T11:45:33.892Z,72.11
2022-11-29T11:50:51.536Z,72.86
2022-11-29T11:56:01.486Z,73.17
2022-11-29T12:01:11.780Z,73.81
2022-11-29T12:06:19.607Z,74.49
2022-11-29T12:11:24.436Z,74.82
2022-11-29T12:16:33.067Z,73.98
2022-11-29T12:21:42.355Z,74.88
2022-11-29T12:26:59.666Z,73.93
2022-11-29T12:32:13.015Z,74.25
2022-11-29T12:37:26.884Z,76.39
2022-11-29T12:42:50.254Z,75.75
2022-11-29T12:48:03.003Z,75.00
2022-11-29T12:53:33.412Z,75.78
2022-11-29T12:59:01.110Z,75.30
2022-11-29T13:04:21.387Z,75.83
2022-11-29T13:09:28.687Z,76.03
2022-11-29T13:14:43.917Z,76.70
2022-11-29T13:19:55.339Z,76.77
2022-11-29T13:25:06.101Z,76.83
2022-11-29T13:30:13.281Z,76.33
2022-11-29T13:35:14.656Z,75.47
2022-11-29T13:40:23.385Z,76.92
2022-11-29T13:45:33.806Z,77.21
2022-11-29T13:50:35.177Z,77.13
2022-11-29T13:55:44.353Z,77.63
2022-11-29T14:00:45.745Z,75.95
2022-11-29T14:05:52.554Z,76.65
2022-11-29T14:11:14.045Z,77.65
2022-11-29T14:16:32.305Z,77.27
2022-11-29T14:22:01.419Z,77.70
2022-11-29T14:27:05.673Z,78.13
2022-11-29T14:32:22.154Z,78.44
2022-11-29T14:37:40.027Z,79.15
2022-11-29T14:42:47.154Z,79.29
2022-11-29T14:47:49.332Z,79.24
2022-11-29T14:52:51.698Z,79.37
2022-11-29T14:58:02.022Z,79.93
2022-11-29T15:03:21.032Z,80.57
2022-11-29T15:08:48.726Z,79.70
2022-11-29T15:14:47.259Z,79.82
2022-11-29T15:20:07.336Z,79.01
2022-11-29T15:25:13.300Z,79.78
2022-11-29T15:30:27.411Z,79.30
2022-11-29T15:35:29.183Z,80.17
2022-11-29T15:40:31.396Z,79.86
2022-11-29T15:45:36.226Z,80.15
2022-11-29T15:50:43.623Z,80.33
2022-11-29T15:55:48.003Z,80.95
2022-11-29T16:00:50.484Z,81.13
2022-11-29T16:06:05.395Z,81.71
2022-11-29T16:11:09.240Z,81.94
2022-11-29T16:16:19.288Z,82.00
2022-11-29T16:21:26.801Z,81.68
2022-11-29T16:44:06.820Z,81.80
2022-11-29T17:05:19.733Z,83.25
2022-11-29T17:36:10.488Z,83.49
2022-11-29T17:41:14.513Z,84.15
2022-11-29T17:46:19.076Z,84.51
2022-11-29T17:51:50.521Z,83.69
2022-11-29T17:56:45.431Z,84.32
2022-11-29T18:01:47.147Z,83.81
2022-11-29T18:06:48.980Z,83.80
2022-11-29T18:11:50.701Z,83.77
2022-11-29T18:16:52.365Z,83.20
2022-11-29T18:21:53.963Z,83.85
2022-11-29T18:26:55.382Z,83.43
2022-11-29T18:31:56.766Z,83.73
2022-11-29T18:36:58.145Z,83.97
2022-11-29T18:41:59.610Z,83.69
2022-11-29T18:47:01.004Z,83.34
2022-11-29T18:52:02.495Z,83.31
2022-11-29T18:57:03.867Z,83.20
2022-11-29T19:02:05.575Z,83.98
2022-11-29T19:07:07.102Z,83.99
2022-11-29T19:12:08.572Z,84.12
2022-11-29T19:17:10.044Z,83.86
2022-11-29T19:22:11.558Z,83.92
2022-11-29T19:27:12.995Z,84.78
2022-11-29T19:32:14.430Z,84.41
2022-11-29T19:37:18.132Z,84.77
2022-11-29T19:42:19.572Z,84.20
2022-11-29T19:47:20.955Z,84.48
2022-11-29T19:52:22.527Z,83.93
2022-11-29T19:57:24.050Z,83.62
2022-11-29T20:02:25.656Z,84.18
2022-11-29T20:07:27.174Z,83.63
2022-11-29T20:12:30.046Z,84.57
2022-11-29T20:17:31.537Z,83.96
2022-11-29T20:22:33.031Z,83.89
2022-11-29T20:27:34.525Z,83.60
2022-11-29T20:32:36.092Z,82.89
2022-11-29T20:37:56.251Z,82.37
2022-11-29T20:43:15.363Z,82.57
2022-11-29T20:48:20.867Z,81.60
2022-11-29T20:53:31.858Z,81.69
2022-11-29T20:58:33.905Z,81.51
2022-11-29T21:03:35.485Z,80.74
2022-11-29T21:08:36.959Z,81.26
2022-11-29T21:13:38.953Z,80.30
2022-11-29T21:18:40.719Z,81.12
2022-11-29T21:23:57.032Z,79.83
2022-11-29T21:29:14.159Z,80.20
2022-11-29T21:34:15.631Z,80.97
2022-11-29T21:39:17.111Z,80.90
2022-11-29T21:44:18.564Z,81.21
2022-11-29T21:49:20.143Z,81.43
2022-11-29T21:54:21.639Z,80.84
2022-11-29T21:59:23.092Z,80.50
2022-11-29T22:04:24.978Z,80.57
2022-11-29T22:09:26.383Z,80.46
2022-11-29T22:14:27.809Z,81.42
2022-11-29T22:19:31.607Z,81.82
2022-11-29T22:24:35.220Z,81.48
2022-11-29T22:29:36.704Z,81.20
2022-11-29T22:34:38.155Z,81.34
2022-11-29T22:39:39.592Z,81.26
2022-11-29T22:44:41.903Z,81.68
2022-11-29T22:49:43.363Z,81.47
2022-11-29T22:54:45.081Z,80.69
2022-11-29T22:59:46.856Z,81.05
2022-11-29T23:04:48.989Z,81.05
2022-11-29T23:09:50.582Z,81.04
2022-11-29T23:14:56.368Z,81.34
2022-11-29T23:19:58.370Z,80.56
2022-11-29T23:24:59.823Z,80.17
2022-11-29T23:30:01.246Z,80.64
2022-11-29T23:35:02.746Z,80.64
2022-11-29T23:40:05.016Z,80.62
2022-11-29T23:45:06.597Z,81.53
2022-11-29T23:50:08.946Z,80.23
2022-11-29T23:55:12.200Z,80.72
